Portada
METAR-TAF:

METAR-TAF

Aeroports :

Fritzlar, Alemanya

latitud: 51-07N, longitud: 009-17E, altitud: 172 m

Observació

L'informe es va fer fa 1 hora i 7 minuts, a les 17:20 UTC
Vent 5 kt del Oest/Nord-Oest
Temperatura 20°C
Humitat 37%
Pressió 1024 hPa
Visibilitat: 6000 m

METAR: ETHF 111720Z AUTO 29005KT 6000 // ////// 20/05 Q1024 ///

Hora: 20:27 (18:27 UTC)


TAF: manca

Observacions i pronòstics meteorològics de més de 4000 aeroports (METAR i TAF).

Les estacions disponibles són els punts grocs i vermells al mapa.

Posi el ratolí al punt desitjat per veure el nom de l'estació.

Feu clic per veure les observacions i els pronòstics meteorològics.

Per canviar el mapa: feu clic els botons verds amb una creu de color negre per apropar; al botó verd amb un guió per allunyar la imatge; o en les fletxes verdes per a mapes adjacents.


METAR-TAF: